Time;durP1;ratioP1;P1;durP2;ratioP2;P2;SDS_P1;SDS_P2;PMS_P1;PMS_P2;Temp;Humidity;BMP_temperature;BMP_pressure;BME280_temperature;BME280_humidity;BME280_pressure;Samples;Min_cycle;Max_cycle;Signal;HPM_P1;HPM_P2
2021/08/13 00:03:45;;;;;;;5.93;3.67;;;18.90;99.90;;;;;;8251046;28;20042;-73
2021/08/13 00:07:47;;;;;;;5.47;2.65;;;18.80;99.90;;;;;;8264286;28;20389;-73
2021/08/13 00:11:49;;;;;;;5.45;3.10;;;18.80;99.90;;;;;;8262072;28;20374;-73
2021/08/13 00:15:51;;;;;;;8.45;4.95;;;18.70;99.90;;;;;;8258830;28;20104;-73
2021/08/13 00:19:54;;;;;;;6.30;3.25;;;18.70;99.90;;;;;;8262733;28;20557;-73
2021/08/13 00:23:56;;;;;;;8.05;5.00;;;18.70;99.90;;;;;;8257656;28;20057;-73
2021/08/13 00:27:58;;;;;;;8.05;4.28;;;18.60;99.90;;;;;;8260646;28;20077;-73
2021/08/13 00:31:59;;;;;;;6.43;4.30;;;18.60;99.90;;;;;;8262380;28;20057;-73
2021/08/13 00:36:01;;;;;;;6.15;3.88;;;18.50;99.90;;;;;;8258990;28;20145;-71
2021/08/13 00:40:05;;;;;;;8.25;4.68;;;18.50;99.90;;;;;;8261611;28;20462;-71
2021/08/13 00:44:07;;;;;;;8.15;3.97;;;18.40;99.90;;;;;;8263015;28;20046;-71
2021/08/13 00:48:09;;;;;;;5.88;3.75;;;18.40;99.90;;;;;;8260031;28;20050;-71
2021/08/13 00:52:11;;;;;;;5.68;3.78;;;18.40;99.90;;;;;;8256453;28;20054;-71
2021/08/13 00:56:13;;;;;;;6.50;4.30;;;18.40;99.90;;;;;;8257325;28;20050;-71
2021/08/13 01:00:14;;;;;;;6.93;4.45;;;18.30;99.90;;;;;;8253027;28;20063;-71
2021/08/13 01:04:16;;;;;;;9.30;4.65;;;18.20;99.90;;;;;;8254998;28;20055;-71
2021/08/13 01:08:18;;;;;;;9.13;5.32;;;18.20;99.90;;;;;;8259261;28;20121;-71
2021/08/13 01:12:29;;;;;;;6.95;4.15;;;18.10;99.90;;;;;;8256021;28;20628;-71
2021/08/13 01:16:34;;;;;;;7.40;4.75;;;18.10;99.90;;;;;;8262073;28;20097;-71
2021/08/13 01:21:13;;;;;;;7.22;4.18;;;18.00;99.90;;;;;;8253361;28;20070;-70
2021/08/13 01:25:19;;;;;;;6.18;3.80;;;17.90;99.90;;;;;;8267624;28;20459;-71
2021/08/13 01:29:45;;;;;;;6.57;4.50;;;17.90;99.90;;;;;;8253938;28;20050;-71
2021/08/13 01:33:49;;;;;;;7.13;5.00;;;17.90;99.90;;;;;;8263014;28;20053;-71
2021/08/13 01:37:54;;;;;;;6.65;4.15;;;17.80;99.90;;;;;;8260210;28;20078;-71
2021/08/13 01:41:57;;;;;;;8.23;4.35;;;17.80;99.90;;;;;;8259245;28;20047;-71
2021/08/13 01:46:00;;;;;;;6.78;3.95;;;17.80;99.90;;;;;;8260141;28;20047;-71
2021/08/13 01:50:02;;;;;;;7.03;4.30;;;17.70;99.90;;;;;;8252457;28;20129;-72
2021/08/13 01:54:05;;;;;;;7.68;4.53;;;17.70;99.90;;;;;;8272903;28;20141;-71
2021/08/13 01:58:07;;;;;;;8.40;4.82;;;17.70;99.90;;;;;;8256707;28;20075;-71
2021/08/13 02:02:09;;;;;;;10.25;4.90;;;17.70;99.90;;;;;;8256325;28;20066;-71
2021/08/13 02:06:12;;;;;;;8.73;4.75;;;17.60;99.90;;;;;;8253456;28;20453;-70
2021/08/13 02:10:15;;;;;;;8.00;4.97;;;17.60;99.90;;;;;;8245123;28;20054;-71
2021/08/13 02:14:17;;;;;;;6.07;3.88;;;17.60;99.90;;;;;;8255205;28;20057;-71
2021/08/13 02:18:24;;;;;;;7.38;4.38;;;17.60;99.90;;;;;;8256842;28;20078;-70
2021/08/13 02:22:26;;;;;;;10.10;5.20;;;17.50;99.90;;;;;;8253146;28;20050;-71
2021/08/13 02:26:28;;;;;;;10.25;5.28;;;17.50;99.90;;;;;;8260982;28;20054;-71
2021/08/13 02:30:30;;;;;;;7.40;4.35;;;17.50;99.90;;;;;;8273768;28;20069;-71
2021/08/13 02:34:32;;;;;;;8.38;5.20;;;17.50;99.90;;;;;;8259821;28;20061;-71
2021/08/13 02:38:40;;;;;;;7.15;4.57;;;17.40;99.90;;;;;;8250610;28;20383;-71
2021/08/13 02:42:55;;;;;;;8.93;5.22;;;17.40;99.90;;;;;;8259857;28;20042;-71
2021/08/13 02:47:05;;;;;;;8.77;5.07;;;17.40;99.90;;;;;;8259408;28;20050;-71
2021/08/13 02:51:13;;;;;;;8.20;5.07;;;17.30;99.90;;;;;;8267598;28;20053;-71
2021/08/13 02:55:21;;;;;;;8.20;4.60;;;17.30;99.90;;;;;;8255747;28;20054;-72
2021/08/13 02:59:27;;;;;;;9.70;4.18;;;17.20;99.90;;;;;;8247038;28;20061;-71
2021/08/13 03:03:30;;;;;;;7.03;4.53;;;17.20;99.90;;;;;;8247354;28;20053;-71
2021/08/13 03:07:33;;;;;;;10.15;4.70;;;17.20;99.90;;;;;;8272697;28;20093;-71
2021/08/13 03:11:39;;;;;;;6.35;4.15;;;17.20;99.90;;;;;;8262760;28;20430;-71
2021/08/13 03:15:41;;;;;;;7.28;4.32;;;17.10;99.90;;;;;;8256141;28;20058;-71
2021/08/13 03:19:43;;;;;;;7.22;4.25;;;17.10;99.90;;;;;;8249898;28;20061;-70
2021/08/13 03:23:45;;;;;;;7.43;4.20;;;17.00;99.90;;;;;;8253460;28;20054;-71
2021/08/13 03:27:48;;;;;;;8.85;4.88;;;17.00;99.90;;;;;;8259557;28;20050;-71
2021/08/13 03:31:49;;;;;;;9.10;4.70;;;17.00;99.90;;;;;;8256671;28;20053;-71
2021/08/13 03:35:51;;;;;;;7.00;4.40;;;16.90;99.90;;;;;;8258461;28;20050;-71
2021/08/13 03:39:53;;;;;;;8.63;4.20;;;16.90;99.90;;;;;;8261627;28;20118;-72
2021/08/13 03:43:55;;;;;;;7.65;4.45;;;16.90;99.90;;;;;;8259496;28;20050;-71
2021/08/13 03:47:56;;;;;;;7.68;5.07;;;16.90;99.90;;;;;;8260099;28;20046;-72
2021/08/13 03:51:59;;;;;;;7.00;4.47;;;16.80;99.90;;;;;;8256966;28;20359;-70
2021/08/13 03:56:00;;;;;;;7.00;4.30;;;16.80;99.90;;;;;;8264037;28;20053;-73
2021/08/13 04:00:04;;;;;;;6.70;4.43;;;16.80;99.90;;;;;;8258630;28;20153;-72
2021/08/13 04:04:06;;;;;;;6.53;3.95;;;16.70;99.90;;;;;;8263108;28;20062;-74
2021/08/13 04:08:07;;;;;;;6.28;3.13;;;16.70;99.90;;;;;;8272324;28;20039;-73
2021/08/13 04:12:09;;;;;;;5.72;3.28;;;16.70;99.90;;;;;;8258886;28;20046;-73
2021/08/13 04:16:11;;;;;;;6.30;4.03;;;16.70;99.90;;;;;;8273009;28;20054;-73
2021/08/13 04:20:13;;;;;;;7.65;4.70;;;16.70;99.90;;;;;;8257042;28;20116;-72
2021/08/13 04:24:15;;;;;;;8.35;4.80;;;16.60;99.90;;;;;;8270072;28;20046;-73
2021/08/13 04:28:16;;;;;;;8.30;5.10;;;16.60;99.90;;;;;;8258472;28;20176;-73
2021/08/13 04:32:18;;;;;;;8.98;5.32;;;16.60;99.90;;;;;;8258825;28;20379;-73
2021/08/13 04:36:20;;;;;;;12.18;5.40;;;16.60;99.90;;;;;;8263767;28;20061;-73
2021/08/13 04:40:21;;;;;;;8.05;4.93;;;16.60;99.90;;;;;;8226613;28;20493;-73
2021/08/13 04:44:23;;;;;;;8.73;4.90;;;16.50;99.90;;;;;;8263655;28;20046;-73
2021/08/13 04:48:25;;;;;;;8.57;5.53;;;16.50;99.90;;;;;;8257429;28;20042;-73
2021/08/13 04:52:27;;;;;;;11.00;5.65;;;16.50;99.90;;;;;;8260581;28;21972;-73
2021/08/13 04:56:28;;;;;;;10.07;5.63;;;16.50;99.90;;;;;;8262571;28;20070;-73
2021/08/13 05:00:30;;;;;;;13.70;6.43;;;16.60;99.90;;;;;;8260011;28;20347;-74
2021/08/13 05:04:32;;;;;;;12.05;6.28;;;16.60;99.90;;;;;;8256157;28;20046;-74
2021/08/13 05:08:34;;;;;;;9.40;5.80;;;16.70;99.90;;;;;;8251387;28;20051;-73
2021/08/13 05:12:36;;;;;;;9.90;5.53;;;16.70;99.90;;;;;;8256291;28;20083;-73
2021/08/13 05:16:38;;;;;;;8.35;5.30;;;16.80;99.90;;;;;;8253518;28;20051;-73
2021/08/13 05:20:40;;;;;;;13.65;7.68;;;16.80;99.90;;;;;;8253979;28;20418;-73
2021/08/13 05:24:42;;;;;;;14.18;8.80;;;16.90;99.90;;;;;;8255992;28;20080;-73
2021/08/13 05:28:43;;;;;;;12.90;7.65;;;17.00;99.90;;;;;;8267998;28;20050;-74
2021/08/13 05:32:47;;;;;;;14.77;8.57;;;17.10;99.90;;;;;;8253641;28;20073;-73
2021/08/13 05:36:49;;;;;;;12.85;7.63;;;17.30;99.90;;;;;;8260221;28;20054;-73
2021/08/13 05:40:51;;;;;;;13.43;7.50;;;17.40;99.90;;;;;;8254118;28;20421;-73
2021/08/13 05:44:52;;;;;;;15.38;8.15;;;17.50;99.90;;;;;;8255687;28;22140;-73
2021/08/13 05:48:54;;;;;;;13.82;8.65;;;17.60;99.90;;;;;;8254808;28;20051;-72
2021/08/13 05:52:56;;;;;;;15.43;9.10;;;17.70;99.90;;;;;;8267933;28;20069;-73
2021/08/13 05:56:58;;;;;;;16.38;9.43;;;17.70;99.90;;;;;;8260727;28;20443;-73
2021/08/13 06:01:02;;;;;;;16.27;9.93;;;17.70;99.90;;;;;;8254616;28;20065;-73
2021/08/13 06:05:04;;;;;;;18.33;9.43;;;17.60;99.90;;;;;;8276119;28;20100;-72
2021/08/13 06:09:06;;;;;;;18.05;10.52;;;17.60;99.90;;;;;;8253280;28;20569;-74
2021/08/13 06:13:07;;;;;;;17.75;9.93;;;17.60;99.90;;;;;;8258662;28;20069;-74
2021/08/13 06:17:09;;;;;;;18.40;10.20;;;17.60;99.90;;;;;;8263563;28;20050;-73
2021/08/13 06:21:12;;;;;;;19.17;10.13;;;17.70;99.90;;;;;;8259524;28;20054;-71
2021/08/13 06:25:14;;;;;;;17.10;9.48;;;17.70;99.90;;;;;;8275547;28;20671;-70
2021/08/13 06:29:15;;;;;;;15.45;9.57;;;17.70;99.90;;;;;;8255574;28;20054;-70
2021/08/13 06:33:17;;;;;;;20.88;10.63;;;17.80;99.90;;;;;;8267665;28;20074;-71
2021/08/13 06:37:19;;;;;;;17.95;10.38;;;17.80;99.90;;;;;;8261596;28;20081;-71
2021/08/13 06:41:20;;;;;;;17.95;10.25;;;17.80;99.90;;;;;;8256223;28;20061;-71
2021/08/13 06:45:23;;;;;;;17.23;10.73;;;17.80;99.90;;;;;;8246770;28;20687;-70
2021/08/13 06:49:25;;;;;;;17.60;10.48;;;17.90;99.90;;;;;;8253478;28;20538;-71
2021/08/13 06:53:27;;;;;;;20.48;10.52;;;17.90;99.90;;;;;;8252746;28;20057;-70
2021/08/13 06:57:29;;;;;;;19.33;9.73;;;17.90;99.90;;;;;;8255177;28;20152;-70
2021/08/13 07:01:31;;;;;;;18.42;10.65;;;18.00;99.90;;;;;;8247894;28;20050;-70
2021/08/13 07:05:33;;;;;;;15.10;9.07;;;18.10;99.90;;;;;;8233711;28;20061;-70
2021/08/13 07:09:34;;;;;;;14.90;9.23;;;18.20;99.90;;;;;;8224679;28;20051;-70
2021/08/13 07:13:36;;;;;;;17.23;9.82;;;18.30;99.90;;;;;;8241352;28;20118;-70
2021/08/13 07:17:39;;;;;;;15.23;9.88;;;18.30;99.90;;;;;;8244704;28;20058;-70
2021/08/13 07:21:40;;;;;;;18.20;8.27;;;18.30;99.90;;;;;;8254227;28;20510;-70
2021/08/13 07:25:43;;;;;;;13.18;6.75;;;18.40;99.90;;;;;;8266493;28;20073;-69
2021/08/13 07:29:45;;;;;;;14.15;8.10;;;18.40;99.90;;;;;;8255068;28;20441;-70
2021/08/13 07:33:47;;;;;;;13.93;7.35;;;18.50;99.90;;;;;;8251987;28;20057;-70
2021/08/13 07:37:49;;;;;;;17.48;9.05;;;18.50;99.90;;;;;;8253125;28;20065;-70
2021/08/13 07:41:51;;;;;;;13.20;7.88;;;18.50;99.90;;;;;;8255020;28;20129;-70
2021/08/13 07:45:53;;;;;;;16.45;9.70;;;18.50;99.90;;;;;;8243274;28;20089;-69
2021/08/13 07:49:54;;;;;;;16.05;10.77;;;18.50;99.90;;;;;;8255290;28;20038;-70
2021/08/13 07:53:56;;;;;;;18.80;11.20;;;18.50;99.90;;;;;;8267283;28;20578;-69
2021/08/13 07:57:58;;;;;;;17.25;10.70;;;18.60;99.90;;;;;;8258517;28;20505;-70
2021/08/13 08:02:00;;;;;;;15.23;10.40;;;18.70;99.90;;;;;;8256243;28;20069;-71
2021/08/13 08:06:04;;;;;;;17.70;12.25;;;18.80;99.90;;;;;;8250879;28;20046;-70
2021/08/13 08:10:07;;;;;;;17.10;11.50;;;18.90;99.90;;;;;;8254151;28;20061;-70
2021/08/13 08:14:09;;;;;;;18.25;12.10;;;18.90;99.90;;;;;;8256020;28;20058;-70
2021/08/13 08:18:11;;;;;;;18.70;12.15;;;18.90;99.90;;;;;;8253295;28;20054;-70
2021/08/13 08:22:13;;;;;;;12.80;9.63;;;19.00;99.90;;;;;;8251821;28;20486;-70
2021/08/13 08:26:14;;;;;;;16.42;11.93;;;19.10;99.90;;;;;;8265767;28;20054;-70
2021/08/13 08:30:16;;;;;;;14.95;10.48;;;19.10;99.90;;;;;;8261363;28;20489;-70
2021/08/13 08:34:18;;;;;;;19.08;11.35;;;19.10;99.90;;;;;;8257215;28;20050;-70
2021/08/13 08:38:20;;;;;;;15.27;10.35;;;19.20;99.90;;;;;;8260292;28;20050;-71
2021/08/13 08:42:22;;;;;;;13.43;9.35;;;19.20;99.90;;;;;;8252815;28;20101;-70
2021/08/13 08:46:24;;;;;;;13.82;9.45;;;19.20;99.90;;;;;;8262244;28;20050;-69
2021/08/13 08:50:28;;;;;;;15.07;9.95;;;19.40;99.90;;;;;;8260716;28;20050;-70
2021/08/13 08:54:30;;;;;;;14.18;8.38;;;19.60;99.90;;;;;;8258803;28;20055;-70
2021/08/13 08:58:32;;;;;;;12.88;8.10;;;19.80;99.90;;;;;;8256769;28;20068;-70
2021/08/13 09:02:35;;;;;;;15.30;7.57;;;20.00;99.90;;;;;;8257038;28;20047;-69
2021/08/13 09:06:41;;;;;;;12.60;6.80;;;20.00;99.90;;;;;;8261943;28;20058;-70
2021/08/13 09:10:43;;;;;;;10.18;6.07;;;20.00;99.90;;;;;;8260928;28;20050;-69
2021/08/13 09:14:44;;;;;;;10.35;5.82;;;20.00;99.90;;;;;;8257027;28;20202;-70
2021/08/13 09:19:00;;;;;;;8.63;5.25;;;20.10;99.90;;;;;;8258125;28;20138;-71
2021/08/13 09:23:02;;;;;;;10.90;5.22;;;20.10;99.90;;;;;;8254920;28;20050;-70
2021/08/13 09:27:27;;;;;;;10.10;5.95;;;20.10;99.90;;;;;;8276626;28;20065;-70
2021/08/13 09:31:31;;;;;;;12.13;5.55;;;20.20;99.90;;;;;;8261362;28;20053;-70
2021/08/13 09:35:36;;;;;;;12.23;6.25;;;20.20;99.90;;;;;;8257800;28;20050;-70
2021/08/13 09:39:38;;;;;;;8.23;4.63;;;20.20;99.90;;;;;;8256555;28;20402;-70
2021/08/13 09:43:59;;;;;;;10.15;5.53;;;20.20;99.90;;;;;;8259905;28;20050;-70
2021/08/13 09:48:01;;;;;;;10.00;5.22;;;20.20;99.90;;;;;;8275494;28;20054;-70
2021/08/13 09:52:14;;;;;;;10.70;5.43;;;20.30;99.90;;;;;;8261611;28;20046;-70
2021/08/13 09:56:33;;;;;;;8.90;4.15;;;20.30;99.90;;;;;;8261920;28;20054;-69
2021/08/13 10:00:43;;;;;;;8.52;5.15;;;20.40;99.90;;;;;;8256909;28;20043;-70
2021/08/13 10:04:45;;;;;;;7.88;4.63;;;20.50;99.90;;;;;;8254785;28;20739;-70
2021/08/13 10:08:47;;;;;;;9.65;5.55;;;20.60;99.90;;;;;;8257978;28;20054;-70
2021/08/13 10:12:49;;;;;;;10.48;4.60;;;20.70;99.90;;;;;;8258238;28;20042;-70
2021/08/13 10:16:51;;;;;;;10.98;4.80;;;20.80;99.90;;;;;;8259781;28;20088;-70
2021/08/13 10:20:56;;;;;;;6.97;4.05;;;20.90;99.90;;;;;;8257046;28;20513;-69
2021/08/13 10:24:59;;;;;;;9.25;4.70;;;21.00;99.90;;;;;;8257039;28;20439;-70
2021/08/13 10:29:01;;;;;;;9.05;4.35;;;21.00;99.90;;;;;;8257501;28;20058;-70
2021/08/13 10:33:07;;;;;;;7.97;4.53;;;21.00;99.90;;;;;;8258000;28;20050;-70
2021/08/13 10:37:11;;;;;;;9.23;4.03;;;20.90;99.90;;;;;;8257774;28;20042;-70
2021/08/13 10:41:15;;;;;;;11.13;4.85;;;21.00;99.90;;;;;;8261026;28;20054;-70
2021/08/13 10:45:26;;;;;;;6.80;3.53;;;21.10;99.90;;;;;;8256569;28;20101;-70
2021/08/13 10:49:28;;;;;;;7.13;3.35;;;21.20;99.90;;;;;;8251961;28;20141;-70
2021/08/13 10:53:35;;;;;;;11.40;3.63;;;21.20;99.90;;;;;;8264832;28;20505;-70
2021/08/13 10:57:52;;;;;;;6.88;4.00;;;21.20;99.90;;;;;;8265067;28;20561;-70
2021/08/13 11:02:13;;;;;;;7.95;3.22;;;21.20;99.90;;;;;;8260449;28;20482;-70
2021/08/13 11:06:15;;;;;;;6.18;3.30;;;21.20;99.90;;;;;;8257928;28;20050;-71
2021/08/13 11:10:38;;;;;;;6.00;3.08;;;21.30;99.90;;;;;;8255466;28;20058;-70
2021/08/13 11:14:54;;;;;;;5.60;2.80;;;21.20;99.90;;;;;;8256957;28;20642;-70
2021/08/13 11:18:59;;;;;;;5.55;2.75;;;21.20;99.90;;;;;;8250985;28;20120;-70
2021/08/13 11:23:04;;;;;;;7.28;2.60;;;21.10;99.90;;;;;;8254444;28;20058;-71
2021/08/13 11:27:07;;;;;;;7.45;2.35;;;21.20;99.90;;;;;;8253143;28;20053;-70
2021/08/13 11:31:09;;;;;;;7.22;2.58;;;21.20;99.90;;;;;;8263221;28;20042;-70
2021/08/13 11:35:11;;;;;;;7.63;2.90;;;21.20;99.90;;;;;;8255547;28;20051;-70
2021/08/13 11:39:39;;;;;;;7.22;2.42;;;21.20;99.90;;;;;;8251627;28;20050;-70
2021/08/13 11:43:42;;;;;;;6.72;2.30;;;21.20;99.90;;;;;;8246121;28;20085;-70
2021/08/13 11:47:48;;;;;;;7.97;2.60;;;21.20;99.90;;;;;;8248469;28;20050;-70
2021/08/13 11:51:51;;;;;;;8.68;2.35;;;21.10;99.90;;;;;;8252976;28;20042;-70
2021/08/13 11:55:53;;;;;;;7.55;2.55;;;21.10;99.90;;;;;;8269866;28;20070;-69
2021/08/13 11:59:54;;;;;;;8.63;2.20;;;21.00;99.90;;;;;;8254965;28;20454;-71
2021/08/13 12:03:56;;;;;;;9.45;2.17;;;21.00;99.90;;;;;;8252714;28;20054;-70
2021/08/13 12:08:08;;;;;;;8.43;2.67;;;21.10;99.90;;;;;;8258534;28;20054;-70
2021/08/13 12:12:11;;;;;;;8.15;2.58;;;21.10;99.90;;;;;;8273118;28;20509;-70
2021/08/13 12:16:17;;;;;;;8.57;2.50;;;21.10;99.90;;;;;;8257889;28;20188;-70
2021/08/13 12:20:19;;;;;;;7.85;2.55;;;21.10;99.90;;;;;;8252719;28;20395;-70
2021/08/13 12:24:31;;;;;;;7.88;2.50;;;21.10;99.90;;;;;;8253974;28;20069;-70
2021/08/13 12:28:36;;;;;;;10.48;2.47;;;21.00;99.90;;;;;;8273125;28;20045;-70
2021/08/13 12:32:40;;;;;;;8.70;2.65;;;21.10;99.90;;;;;;8257963;28;20495;-70
2021/08/13 12:36:41;;;;;;;9.82;3.05;;;21.20;99.90;;;;;;8263059;28;20054;-70
2021/08/13 12:40:53;;;;;;;7.30;2.30;;;21.20;99.90;;;;;;8261662;28;20568;-70
2021/08/13 12:44:55;;;;;;;9.68;2.78;;;21.30;99.90;;;;;;8262035;28;20046;-70
2021/08/13 12:48:58;;;;;;;12.00;2.70;;;21.20;99.90;;;;;;8257236;28;20494;-70
2021/08/13 12:53:02;;;;;;;10.73;2.80;;;21.20;99.90;;;;;;8264283;28;20042;-70
2021/08/13 12:57:10;;;;;;;7.78;2.85;;;21.10;99.90;;;;;;8265001;28;20054;-70
2021/08/13 13:01:32;;;;;;;7.28;2.45;;;21.10;99.90;;;;;;8260091;28;20046;-70
2021/08/13 13:05:34;;;;;;;9.40;2.40;;;21.00;99.90;;;;;;8251792;28;20141;-70
2021/08/13 13:09:39;;;;;;;8.57;2.83;;;20.90;99.90;;;;;;8255119;28;20042;-70
2021/08/13 13:13:52;;;;;;;8.10;2.47;;;20.90;99.90;;;;;;8259919;28;20061;-70
2021/08/13 13:17:56;;;;;;;6.72;2.20;;;20.90;99.90;;;;;;8257009;28;20050;-70
2021/08/13 13:22:21;;;;;;;8.32;2.53;;;20.90;99.90;;;;;;8260980;28;20137;-70
2021/08/13 13:26:23;;;;;;;9.00;2.58;;;20.90;99.90;;;;;;8260416;28;20057;-70
2021/08/13 13:30:59;;;;;;;11.25;2.50;;;20.90;99.90;;;;;;8276335;28;20046;-70
2021/08/13 13:35:03;;;;;;;7.50;2.47;;;20.90;99.90;;;;;;8256108;28;20058;-70
2021/08/13 13:39:05;;;;;;;8.98;1.98;;;21.00;99.90;;;;;;8259085;28;20058;-70
2021/08/13 13:43:08;;;;;;;6.90;2.38;;;21.00;99.90;;;;;;8253000;28;21892;-70
2021/08/13 13:47:09;;;;;;;9.98;2.90;;;21.10;99.90;;;;;;8258818;28;20410;-70
2021/08/13 13:51:12;;;;;;;11.80;2.63;;;21.10;99.90;;;;;;8257755;28;20398;-70
2021/08/13 13:55:14;;;;;;;16.98;2.67;;;21.20;99.90;;;;;;8264555;28;20065;-71
2021/08/13 13:59:16;;;;;;;8.85;2.55;;;21.20;99.90;;;;;;8257355;28;20050;-70
2021/08/13 14:03:18;;;;;;;9.73;2.65;;;21.10;99.90;;;;;;8254362;28;20054;-69
2021/08/13 14:07:20;;;;;;;7.72;2.42;;;21.20;99.90;;;;;;8254580;28;20450;-70
2021/08/13 14:11:22;;;;;;;8.77;2.53;;;21.20;99.90;;;;;;8258569;28;20050;-72
2021/08/13 14:15:23;;;;;;;7.82;2.45;;;21.10;99.90;;;;;;8256969;28;20050;-72
2021/08/13 14:19:25;;;;;;;10.98;2.65;;;21.10;99.90;;;;;;8246833;28;20160;-72
2021/08/13 14:23:27;;;;;;;8.30;2.42;;;21.00;99.90;;;;;;8255645;28;20078;-72
2021/08/13 14:27:29;;;;;;;11.35;2.75;;;21.00;99.90;;;;;;8253373;28;20081;-72
2021/08/13 14:31:30;;;;;;;8.55;2.35;;;21.00;99.90;;;;;;8273368;28;20107;-72
2021/08/13 14:35:35;;;;;;;10.70;2.80;;;21.10;99.90;;;;;;8196027;28;20054;-72
2021/08/13 14:39:37;;;;;;;9.15;2.33;;;21.10;99.90;;;;;;8262320;28;20066;-72
2021/08/13 14:43:39;;;;;;;11.25;2.78;;;21.20;99.90;;;;;;8257361;28;20053;-72
2021/08/13 14:47:41;;;;;;;8.93;2.60;;;21.30;99.90;;;;;;8254900;28;20050;-72
2021/08/13 14:51:43;;;;;;;7.82;2.28;;;21.30;99.90;;;;;;8255676;28;20049;-72
2021/08/13 14:55:45;;;;;;;7.25;2.22;;;21.30;99.90;;;;;;8254943;28;20482;-72
2021/08/13 14:59:46;;;;;;;9.40;2.58;;;21.30;99.90;;;;;;8255888;28;20049;-72
2021/08/13 15:03:50;;;;;;;9.55;2.60;;;21.30;99.90;;;;;;8252082;28;20391;-72
2021/08/13 15:07:52;;;;;;;8.25;2.47;;;21.30;99.90;;;;;;8254358;28;20505;-72
2021/08/13 15:11:54;;;;;;;8.38;2.95;;;21.20;99.90;;;;;;8259357;28;20109;-72
2021/08/13 15:15:56;;;;;;;7.88;2.38;;;21.20;99.90;;;;;;8253674;28;20077;-72
2021/08/13 15:19:58;;;;;;;9.38;2.35;;;21.10;99.90;;;;;;8250300;28;20494;-73
2021/08/13 15:23:59;;;;;;;11.50;2.65;;;21.10;99.90;;;;;;8249295;28;20054;-72
2021/08/13 15:28:02;;;;;;;10.80;2.50;;;21.00;99.90;;;;;;8261984;28;20112;-73
2021/08/13 15:32:04;;;;;;;10.10;2.65;;;21.00;99.90;;;;;;8249626;28;20116;-73
2021/08/13 15:36:06;;;;;;;8.80;2.20;;;20.90;99.90;;;;;;8243437;28;20054;-73
2021/08/13 15:40:08;;;;;;;6.60;2.08;;;20.90;99.90;;;;;;8238449;28;20050;-72
2021/08/13 15:44:10;;;;;;;9.05;2.45;;;20.90;99.90;;;;;;8247526;28;20054;-73
2021/08/13 15:48:12;;;;;;;8.50;2.33;;;20.90;99.90;;;;;;8261370;28;20054;-72
2021/08/13 15:52:14;;;;;;;6.97;2.10;;;21.00;99.90;;;;;;8257015;28;20058;-73
2021/08/13 15:56:16;;;;;;;9.43;2.42;;;21.00;99.90;;;;;;8244521;28;20061;-73
2021/08/13 16:00:18;;;;;;;6.93;1.98;;;21.10;99.90;;;;;;8248011;28;20502;-73
2021/08/13 16:04:20;;;;;;;12.57;2.30;;;21.10;99.90;;;;;;8250519;28;20482;-73
2021/08/13 16:08:22;;;;;;;10.35;2.53;;;21.10;99.90;;;;;;8246415;28;20053;-74
2021/08/13 16:12:24;;;;;;;8.45;2.33;;;21.10;99.90;;;;;;8248073;28;20050;-73
2021/08/13 16:16:25;;;;;;;7.13;2.22;;;21.10;99.90;;;;;;8237376;28;20095;-74
2021/08/13 16:20:27;;;;;;;12.18;2.30;;;21.10;99.90;;;;;;8243529;28;20054;-73
2021/08/13 16:24:29;;;;;;;10.77;2.50;;;21.10;99.90;;;;;;8246429;28;20187;-73
2021/08/13 16:28:31;;;;;;;9.30;3.20;;;21.10;99.90;;;;;;8254644;28;20049;-73
2021/08/13 16:32:35;;;;;;;9.68;2.67;;;21.10;99.90;;;;;;8244997;28;20057;-72
2021/08/13 16:36:37;;;;;;;8.93;2.35;;;21.20;99.90;;;;;;8244413;28;20049;-73
2021/08/13 16:40:39;;;;;;;8.85;2.35;;;21.20;99.90;;;;;;8255827;28;20059;-73
2021/08/13 16:44:41;;;;;;;8.75;2.40;;;21.30;99.90;;;;;;8248008;28;20057;-72
2021/08/13 16:48:42;;;;;;;9.98;2.47;;;21.30;99.90;;;;;;8251378;28;20050;-73
2021/08/13 16:52:47;;;;;;;8.55;2.30;;;21.30;99.90;;;;;;8252926;28;20066;-72
2021/08/13 16:56:50;;;;;;;9.20;2.60;;;21.20;99.90;;;;;;8254862;28;20046;-73
2021/08/13 17:00:51;;;;;;;7.25;2.25;;;21.10;99.90;;;;;;8253225;28;20054;-73
2021/08/13 17:04:53;;;;;;;9.65;2.42;;;21.10;99.90;;;;;;8252953;28;20054;-73
2021/08/13 17:08:55;;;;;;;8.18;2.40;;;21.00;99.90;;;;;;8244445;28;20045;-72
2021/08/13 17:12:57;;;;;;;9.25;2.53;;;21.00;99.90;;;;;;8265639;28;20046;-73
2021/08/13 17:16:58;;;;;;;7.45;2.38;;;21.00;99.90;;;;;;8253062;28;20093;-73
2021/08/13 17:21:00;;;;;;;9.43;2.50;;;21.10;99.90;;;;;;8250943;28;20062;-73
2021/08/13 17:25:03;;;;;;;9.13;2.38;;;21.10;99.90;;;;;;8252891;28;20070;-73
2021/08/13 17:29:05;;;;;;;13.38;2.63;;;21.10;99.90;;;;;;8252362;28;20051;-73
2021/08/13 17:33:07;;;;;;;9.00;2.50;;;21.10;99.90;;;;;;8266892;28;20057;-73
2021/08/13 17:37:09;;;;;;;9.27;2.60;;;21.00;99.90;;;;;;8247960;28;20073;-72
2021/08/13 17:41:11;;;;;;;7.90;2.45;;;21.00;99.90;;;;;;8243734;28;20046;-73
2021/08/13 17:45:13;;;;;;;7.53;2.70;;;20.80;99.90;;;;;;8249940;28;20166;-73
2021/08/13 17:49:15;;;;;;;9.15;2.70;;;20.70;99.90;;;;;;8249782;28;20489;-73
2021/08/13 17:53:17;;;;;;;8.18;2.53;;;20.60;99.90;;;;;;8252623;28;20053;-73
2021/08/13 17:57:19;;;;;;;10.55;2.63;;;20.60;99.90;;;;;;8248989;28;20426;-73
2021/08/13 18:01:21;;;;;;;11.25;2.70;;;20.60;99.90;;;;;;8251747;28;20065;-73
2021/08/13 18:05:23;;;;;;;8.15;2.55;;;20.60;99.90;;;;;;8253030;28;20108;-73
2021/08/13 18:09:25;;;;;;;6.25;2.47;;;20.50;99.90;;;;;;8261128;28;20057;-73
2021/08/13 18:13:28;;;;;;;9.10;2.92;;;20.50;99.90;;;;;;8249617;28;20050;-73
2021/08/13 18:17:29;;;;;;;7.53;2.30;;;20.50;99.90;;;;;;8249225;28;20058;-73
2021/08/13 18:21:34;;;;;;;5.88;2.15;;;20.40;99.90;;;;;;8253144;28;20060;-73
2021/08/13 18:25:35;;;;;;;6.57;2.25;;;20.40;99.90;;;;;;8250259;28;20054;-73
2021/08/13 18:29:37;;;;;;;11.15;2.25;;;20.40;99.90;;;;;;8250421;28;20359;-73
2021/08/13 18:33:39;;;;;;;11.32;2.33;;;20.40;99.90;;;;;;8251964;28;20141;-73
2021/08/13 18:37:40;;;;;;;7.90;2.50;;;20.40;99.90;;;;;;8251310;28;20061;-74
2021/08/13 18:41:44;;;;;;;6.30;2.17;;;20.40;99.90;;;;;;8253661;28;20414;-73
2021/08/13 18:45:46;;;;;;;7.07;2.05;;;20.40;99.90;;;;;;8250680;28;20065;-74
2021/08/13 18:49:48;;;;;;;5.85;2.35;;;20.30;99.90;;;;;;8251316;28;20173;-74
2021/08/13 18:53:50;;;;;;;7.68;2.33;;;20.30;99.90;;;;;;8252494;28;20042;-73
2021/08/13 18:57:52;;;;;;;7.60;2.63;;;20.30;99.90;;;;;;8250687;28;20512;-74
2021/08/13 19:01:54;;;;;;;6.85;2.47;;;20.20;99.90;;;;;;8250838;28;20448;-74
2021/08/13 19:05:56;;;;;;;10.23;2.25;;;20.20;99.90;;;;;;8241275;28;20046;-74
2021/08/13 19:09:58;;;;;;;8.82;2.40;;;20.10;99.90;;;;;;8266705;28;20054;-74
2021/08/13 19:14:00;;;;;;;5.97;2.30;;;20.00;99.90;;;;;;8265960;28;20156;-74
2021/08/13 19:18:03;;;;;;;7.90;2.38;;;19.90;99.90;;;;;;8248809;28;20050;-73
2021/08/13 19:22:04;;;;;;;6.75;2.30;;;19.80;99.90;;;;;;8248976;28;20054;-74
2021/08/13 19:26:06;;;;;;;6.55;2.10;;;19.70;99.90;;;;;;8247037;28;20402;-73
2021/08/13 19:30:08;;;;;;;6.65;2.45;;;19.60;99.90;;;;;;8247881;28;20065;-73
2021/08/13 19:34:10;;;;;;;6.13;2.30;;;19.50;99.90;;;;;;8247231;28;20456;-73
2021/08/13 19:38:12;;;;;;;7.78;2.08;;;19.40;99.90;;;;;;8245649;28;20058;-73
2021/08/13 19:42:13;;;;;;;6.45;2.13;;;19.30;99.90;;;;;;8249642;28;20054;-73
2021/08/13 19:46:15;;;;;;;6.72;2.38;;;19.20;99.90;;;;;;8248060;28;20043;-73
2021/08/13 19:50:18;;;;;;;6.22;2.30;;;19.10;99.90;;;;;;8260786;28;20046;-73
2021/08/13 19:54:20;;;;;;;7.13;2.30;;;19.00;99.90;;;;;;8243704;28;20050;-74
2021/08/13 19:58:21;;;;;;;5.35;2.00;;;18.90;99.90;;;;;;8236423;28;20054;-74
2021/08/13 20:02:23;;;;;;;5.45;2.10;;;18.80;99.90;;;;;;8245742;28;20058;-74
2021/08/13 20:06:25;;;;;;;7.28;2.20;;;18.80;99.90;;;;;;8248326;28;20058;-73
2021/08/13 20:10:27;;;;;;;9.15;2.35;;;18.70;99.90;;;;;;8247961;28;20054;-73
2021/08/13 20:14:29;;;;;;;6.30;2.17;;;18.60;99.90;;;;;;8248597;28;20054;-73
2021/08/13 20:18:31;;;;;;;7.35;2.25;;;18.50;99.90;;;;;;8247266;28;20047;-73
2021/08/13 20:22:35;;;;;;;7.60;2.00;;;18.40;99.90;;;;;;8252121;28;20498;-73
2021/08/13 20:26:36;;;;;;;7.50;2.33;;;18.30;99.90;;;;;;8253913;28;20046;-73
2021/08/13 20:30:38;;;;;;;8.68;2.17;;;18.30;99.90;;;;;;8253984;28;20557;-73
2021/08/13 20:34:40;;;;;;;4.93;2.20;;;18.20;99.90;;;;;;8247005;28;20046;-74
2021/08/13 20:38:42;;;;;;;6.78;2.45;;;18.10;99.90;;;;;;8251572;28;20054;-74
2021/08/13 20:42:44;;;;;;;9.48;2.50;;;18.10;99.90;;;;;;8253482;28;20054;-74
2021/08/13 20:46:45;;;;;;;8.25;2.47;;;18.00;99.90;;;;;;8255034;28;20050;-74
2021/08/13 20:50:47;;;;;;;6.25;2.25;;;17.90;99.90;;;;;;8251615;28;20055;-73
2021/08/13 20:54:49;;;;;;;6.70;2.30;;;17.90;99.90;;;;;;8251881;28;20058;-74
2021/08/13 20:58:51;;;;;;;9.50;2.60;;;17.90;99.90;;;;;;8249710;28;20046;-73
2021/08/13 21:02:53;;;;;;;5.70;2.13;;;17.80;99.90;;;;;;8273304;28;20054;-73